sensor_id;sensor_type;location;lat;lon;timestamp;pressure;altitude;pressure_sealevel;temperature
69590;BMP180;56792;50.644;17.984;2023-02-01T16:17:39;99042.60;;;18.26
69590;BMP180;56792;50.644;17.984;2023-02-01T16:20:15;99042.60;;;16.94
69590;BMP180;56792;50.644;17.984;2023-02-01T16:22:48;99039.00;;;15.02
69590;BMP180;56792;50.644;17.984;2023-02-01T16:25:21;99032.60;;;13.68
69590;BMP180;56792;50.644;17.984;2023-02-01T16:27:53;99032.20;;;12.54
69590;BMP180;56792;50.644;17.984;2023-02-01T16:30:31;99023.00;;;11.56
69590;BMP180;56792;50.644;17.984;2023-02-01T16:33:09;99022.40;;;10.68
69590;BMP180;56792;50.644;17.984;2023-02-01T16:35:58;99023.00;;;9.98
69590;BMP180;56792;50.644;17.984;2023-02-01T16:38:37;99023.00;;;9.28
69590;BMP180;56792;50.644;17.984;2023-02-01T16:41:17;99030.40;;;8.74
69590;BMP180;56792;50.644;17.984;2023-02-01T16:43:53;99048.00;;;8.26
69590;BMP180;56792;50.644;17.984;2023-02-01T16:46:28;99063.80;;;7.68
69590;BMP180;56792;50.644;17.984;2023-02-01T16:49:05;99057.40;;;7.14
69590;BMP180;56792;50.644;17.984;2023-02-01T16:51:43;99059.20;;;6.70
69590;BMP180;56792;50.644;17.984;2023-02-01T16:54:20;99056.00;;;6.30
69590;BMP180;56792;50.644;17.984;2023-02-01T16:56:53;99053.00;;;5.90
69590;BMP180;56792;50.644;17.984;2023-02-01T16:59:27;99046.80;;;5.60
69590;BMP180;56792;50.644;17.984;2023-02-01T17:02:00;99040.60;;;5.40
69590;BMP180;56792;50.644;17.984;2023-02-01T17:04:34;99036.40;;;5.20
69590;BMP180;56792;50.644;17.984;2023-02-01T17:07:09;99029.40;;;5.02
69590;BMP180;56792;50.644;17.984;2023-02-01T17:09:46;99032.00;;;4.90
69590;BMP180;56792;50.644;17.984;2023-02-01T17:12:27;99026.60;;;4.80
69590;BMP180;56792;50.644;17.984;2023-02-01T17:15:08;99022.80;;;4.70
69590;BMP180;56792;50.644;17.984;2023-02-01T17:17:46;99022.20;;;4.60
69590;BMP180;56792;50.644;17.984;2023-02-01T17:20:25;99018.80;;;4.50
69590;BMP180;56792;50.644;17.984;2023-02-01T17:23:01;99014.20;;;4.50
69590;BMP180;56792;50.644;17.984;2023-02-01T17:25:37;99011.80;;;4.50
69590;BMP180;56792;50.644;17.984;2023-02-01T17:28:11;99009.60;;;4.50
69590;BMP180;56792;50.644;17.984;2023-02-01T17:30:45;99006.20;;;4.50
69590;BMP180;56792;50.644;17.984;2023-02-01T17:33:27;99007.80;;;4.48
69590;BMP180;56792;50.644;17.984;2023-02-01T17:36:05;99001.60;;;4.40
69590;BMP180;56792;50.644;17.984;2023-02-01T17:38:38;99000.40;;;4.30
69590;BMP180;56792;50.644;17.984;2023-02-01T17:41:14;98992.20;;;4.30
69590;BMP180;56792;50.644;17.984;2023-02-01T17:43:49;98998.80;;;4.20
69590;BMP180;56792;50.644;17.984;2023-02-01T17:46:24;99005.80;;;4.10
69590;BMP180;56792;50.644;17.984;2023-02-01T17:49:05;99009.00;;;4.10
69590;BMP180;56792;50.644;17.984;2023-02-01T17:51:39;98999.80;;;4.00
69590;BMP180;56792;50.644;17.984;2023-02-01T17:54:16;99002.20;;;3.98
69590;BMP180;56792;50.644;17.984;2023-02-01T17:56:52;99000.00;;;3.90
69590;BMP180;56792;50.644;17.984;2023-02-01T17:59:27;98993.40;;;3.90
69590;BMP180;56792;50.644;17.984;2023-02-01T18:02:01;99001.20;;;3.86
69590;BMP180;56792;50.644;17.984;2023-02-01T18:04:40;98995.60;;;3.80
69590;BMP180;56792;50.644;17.984;2023-02-01T18:07:15;98995.00;;;3.72
69590;BMP180;56792;50.644;17.984;2023-02-01T18:09:50;98987.20;;;3.70
69590;BMP180;56792;50.644;17.984;2023-02-01T18:12:32;98984.80;;;3.70
69590;BMP180;56792;50.644;17.984;2023-02-01T18:15:18;98985.60;;;3.62
69590;BMP180;56792;50.644;17.984;2023-02-01T18:18:07;98982.20;;;3.60
69590;BMP180;56792;50.644;17.984;2023-02-01T18:20:45;98981.40;;;3.50
69590;BMP180;56792;50.644;17.984;2023-02-01T18:23:22;98973.00;;;3.44
69590;BMP180;56792;50.644;17.984;2023-02-01T18:25:59;98966.40;;;3.40
69590;BMP180;56792;50.644;17.984;2023-02-01T18:28:36;98957.80;;;3.40
69590;BMP180;56792;50.644;17.984;2023-02-01T18:31:24;98949.80;;;3.40
69590;BMP180;56792;50.644;17.984;2023-02-01T18:34:01;98941.60;;;3.40
69590;BMP180;56792;50.644;17.984;2023-02-01T18:36:37;98935.00;;;3.40
69590;BMP180;56792;50.644;17.984;2023-02-01T18:39:17;98932.40;;;3.40
69590;BMP180;56792;50.644;17.984;2023-02-01T18:41:55;98935.80;;;3.40
69590;BMP180;56792;50.644;17.984;2023-02-01T18:44:32;98926.60;;;3.40
69590;BMP180;56792;50.644;17.984;2023-02-01T18:47:06;98923.60;;;3.40
69590;BMP180;56792;50.644;17.984;2023-02-01T18:49:44;98917.00;;;3.40
69590;BMP180;56792;50.644;17.984;2023-02-01T18:52:25;98919.40;;;3.40
69590;BMP180;56792;50.644;17.984;2023-02-01T18:55:01;98916.80;;;3.40
69590;BMP180;56792;50.644;17.984;2023-02-01T18:57:44;98917.60;;;3.40
69590;BMP180;56792;50.644;17.984;2023-02-01T19:00:22;98916.60;;;3.36
69590;BMP180;56792;50.644;17.984;2023-02-01T19:03:02;98918.00;;;3.40
69590;BMP180;56792;50.644;17.984;2023-02-01T19:05:49;98909.60;;;3.40
69590;BMP180;56792;50.644;17.984;2023-02-01T19:08:25;98902.40;;;3.40
69590;BMP180;56792;50.644;17.984;2023-02-01T19:11:08;98894.60;;;3.40
69590;BMP180;56792;50.644;17.984;2023-02-01T19:13:48;98886.00;;;3.50
69590;BMP180;56792;50.644;17.984;2023-02-01T19:16:25;98875.80;;;3.50
69590;BMP180;56792;50.644;17.984;2023-02-01T19:19:03;98868.60;;;3.60
69590;BMP180;56792;50.644;17.984;2023-02-01T19:21:37;98859.40;;;3.60
69590;BMP180;56792;50.644;17.984;2023-02-01T19:24:15;98852.80;;;3.68
69590;BMP180;56792;50.644;17.984;2023-02-01T19:26:56;98851.60;;;3.70
69590;BMP180;56792;50.644;17.984;2023-02-01T19:29:32;98846.80;;;3.70
69590;BMP180;56792;50.644;17.984;2023-02-01T19:32:09;98843.40;;;3.80
69590;BMP180;56792;50.644;17.984;2023-02-01T19:34:55;98846.20;;;3.92
69590;BMP180;56792;50.644;17.984;2023-02-01T19:37:44;98861.80;;;4.00
69590;BMP180;56792;50.644;17.984;2023-02-01T19:40:33;98865.00;;;4.00
69590;BMP180;56792;50.644;17.984;2023-02-01T19:43:24;98865.40;;;3.90
69590;BMP180;56792;50.644;17.984;2023-02-01T19:46:16;98850.00;;;3.80
69590;BMP180;56792;50.644;17.984;2023-02-01T19:48:55;98836.80;;;3.80
69590;BMP180;56792;50.644;17.984;2023-02-01T19:51:33;98830.80;;;3.78
69590;BMP180;56792;50.644;17.984;2023-02-01T19:54:13;98819.80;;;3.70
69590;BMP180;56792;50.644;17.984;2023-02-01T19:56:56;98812.80;;;3.70
69590;BMP180;56792;50.644;17.984;2023-02-01T19:59:33;98814.00;;;3.70
69590;BMP180;56792;50.644;17.984;2023-02-01T20:02:14;98806.20;;;3.70
69590;BMP180;56792;50.644;17.984;2023-02-01T20:04:51;98808.80;;;3.62
69590;BMP180;56792;50.644;17.984;2023-02-01T20:07:30;98809.20;;;3.60
69590;BMP180;56792;50.644;17.984;2023-02-01T20:10:11;98800.60;;;3.60
69590;BMP180;56792;50.644;17.984;2023-02-01T20:12:49;98804.60;;;3.60
69590;BMP180;56792;50.644;17.984;2023-02-01T20:15:27;98797.00;;;3.60
69590;BMP180;56792;50.644;17.984;2023-02-01T20:18:08;98793.00;;;3.60
69590;BMP180;56792;50.644;17.984;2023-02-01T20:20:45;98789.40;;;3.60
69590;BMP180;56792;50.644;17.984;2023-02-01T20:23:20;98783.20;;;3.60
69590;BMP180;56792;50.644;17.984;2023-02-01T20:26:07;98781.40;;;3.60
69590;BMP180;56792;50.644;17.984;2023-02-01T20:28:44;98774.80;;;3.60
69590;BMP180;56792;50.644;17.984;2023-02-01T20:31:25;98773.40;;;3.60
69590;BMP180;56792;50.644;17.984;2023-02-01T20:34:05;98768.80;;;3.58
69590;BMP180;56792;50.644;17.984;2023-02-01T20:36:42;98766.40;;;3.56
69590;BMP180;56792;50.644;17.984;2023-02-01T20:39:18;98764.40;;;3.60
69590;BMP180;56792;50.644;17.984;2023-02-01T20:42:00;98757.80;;;3.60
69590;BMP180;56792;50.644;17.984;2023-02-01T20:44:36;98761.60;;;3.60
69590;BMP180;56792;50.644;17.984;2023-02-01T20:47:12;98751.40;;;3.60
69590;BMP180;56792;50.644;17.984;2023-02-01T20:53:04;98755.80;;;3.66
69590;BMP180;56792;50.644;17.984;2023-02-01T20:55:43;98741.40;;;3.70
69590;BMP180;56792;50.644;17.984;2023-02-01T20:58:20;98742.60;;;3.70
69590;BMP180;56792;50.644;17.984;2023-02-01T21:00:59;98739.60;;;3.70
69590;BMP180;56792;50.644;17.984;2023-02-01T21:04:02;98742.00;;;3.78
69590;BMP180;56792;50.644;17.984;2023-02-01T21:06:40;98747.40;;;3.80
69590;BMP180;56792;50.644;17.984;2023-02-01T21:09:19;98751.00;;;3.80
69590;BMP180;56792;50.644;17.984;2023-02-01T21:11:57;98745.80;;;3.90
69590;BMP180;56792;50.644;17.984;2023-02-01T21:14:34;98742.00;;;3.90
69590;BMP180;56792;50.644;17.984;2023-02-01T21:17:13;98741.80;;;3.90
69590;BMP180;56792;50.644;17.984;2023-02-01T21:19:50;98752.40;;;3.90
69590;BMP180;56792;50.644;17.984;2023-02-01T21:22:27;98751.40;;;3.92
69590;BMP180;56792;50.644;17.984;2023-02-01T21:25:10;98758.60;;;3.94
69590;BMP180;56792;50.644;17.984;2023-02-01T21:27:46;98763.80;;;3.98
69590;BMP180;56792;50.644;17.984;2023-02-01T21:30:22;98779.40;;;3.90
69590;BMP180;56792;50.644;17.984;2023-02-01T21:32:56;98793.00;;;3.90
69590;BMP180;56792;50.644;17.984;2023-02-01T21:35:32;98798.80;;;3.88
69590;BMP180;56792;50.644;17.984;2023-02-01T21:38:13;98806.60;;;3.80
69590;BMP180;56792;50.644;17.984;2023-02-01T21:40:57;98804.80;;;3.76
69590;BMP180;56792;50.644;17.984;2023-02-01T21:43:56;98808.00;;;3.70
69590;BMP180;56792;50.644;17.984;2023-02-01T21:46:35;98809.20;;;3.60
69590;BMP180;56792;50.644;17.984;2023-02-01T21:49:09;98816.60;;;3.54
69590;BMP180;56792;50.644;17.984;2023-02-01T21:51:42;98821.20;;;3.44
69590;BMP180;56792;50.644;17.984;2023-02-01T21:54:17;98818.60;;;3.30
69590;BMP180;56792;50.644;17.984;2023-02-01T21:56:52;98821.60;;;3.30
69590;BMP180;56792;50.644;17.984;2023-02-01T21:59:27;98825.60;;;3.20
69590;BMP180;56792;50.644;17.984;2023-02-01T22:02:03;98826.40;;;3.10
69590;BMP180;56792;50.644;17.984;2023-02-01T22:04:40;98826.60;;;3.00
69590;BMP180;56792;50.644;17.984;2023-02-01T22:07:18;98833.20;;;2.90
69590;BMP180;56792;50.644;17.984;2023-02-01T22:09:58;98833.60;;;2.74
69590;BMP180;56792;50.644;17.984;2023-02-01T22:12:35;98834.60;;;2.64
69590;BMP180;56792;50.644;17.984;2023-02-01T22:15:13;98838.60;;;2.60
69590;BMP180;56792;50.644;17.984;2023-02-01T22:17:48;98841.20;;;2.50
69590;BMP180;56792;50.644;17.984;2023-02-01T22:20:21;98845.00;;;2.38
69590;BMP180;56792;50.644;17.984;2023-02-01T22:22:54;98840.80;;;2.30
69590;BMP180;56792;50.644;17.984;2023-02-01T22:25:28;98841.00;;;2.22
69590;BMP180;56792;50.644;17.984;2023-02-01T22:28:03;98843.60;;;2.20
69590;BMP180;56792;50.644;17.984;2023-02-01T22:30:38;98846.40;;;2.10
69590;BMP180;56792;50.644;17.984;2023-02-01T22:33:13;98840.60;;;2.00
69590;BMP180;56792;50.644;17.984;2023-02-01T22:35:50;98840.40;;;1.94
69590;BMP180;56792;50.644;17.984;2023-02-01T22:38:25;98843.20;;;1.90
69590;BMP180;56792;50.644;17.984;2023-02-01T22:41:02;98847.20;;;1.86
69590;BMP180;56792;50.644;17.984;2023-02-01T22:43:36;98844.60;;;1.80
69590;BMP180;56792;50.644;17.984;2023-02-01T22:46:12;98848.40;;;1.80
69590;BMP180;56792;50.644;17.984;2023-02-01T22:48:47;98853.40;;;1.70
69590;BMP180;56792;50.644;17.984;2023-02-01T22:51:23;98847.80;;;1.70
69590;BMP180;56792;50.644;17.984;2023-02-01T22:53:56;98856.20;;;1.70
69590;BMP180;56792;50.644;17.984;2023-02-01T22:56:32;98856.80;;;1.70
69590;BMP180;56792;50.644;17.984;2023-02-01T22:59:08;98859.80;;;1.70
69590;BMP180;56792;50.644;17.984;2023-02-01T23:01:42;98851.00;;;1.70
69590;BMP180;56792;50.644;17.984;2023-02-01T23:04:16;98857.40;;;1.70
69590;BMP180;56792;50.644;17.984;2023-02-01T23:06:51;98860.60;;;1.70
69590;BMP180;56792;50.644;17.984;2023-02-01T23:09:25;98858.80;;;1.70
69590;BMP180;56792;50.644;17.984;2023-02-01T23:11:58;98863.60;;;1.70
69590;BMP180;56792;50.644;17.984;2023-02-01T23:14:30;98854.80;;;1.70
69590;BMP180;56792;50.644;17.984;2023-02-01T23:17:02;98862.40;;;1.70
69590;BMP180;56792;50.644;17.984;2023-02-01T23:19:35;98862.40;;;1.70
69590;BMP180;56792;50.644;17.984;2023-02-01T23:22:08;98862.20;;;1.70
69590;BMP180;56792;50.644;17.984;2023-02-01T23:24:40;98857.80;;;1.70
69590;BMP180;56792;50.644;17.984;2023-02-01T23:27:12;98869.20;;;1.72
69590;BMP180;56792;50.644;17.984;2023-02-01T23:29:45;98865.80;;;1.80
69590;BMP180;56792;50.644;17.984;2023-02-01T23:32:18;98865.60;;;1.80
69590;BMP180;56792;50.644;17.984;2023-02-01T23:34:50;98867.80;;;1.80
69590;BMP180;56792;50.644;17.984;2023-02-01T23:37:22;98866.00;;;1.82
69590;BMP180;56792;50.644;17.984;2023-02-01T23:39:55;98863.40;;;1.90
69590;BMP180;56792;50.644;17.984;2023-02-01T23:42:27;98864.80;;;1.90
69590;BMP180;56792;50.644;17.984;2023-02-01T23:44:59;98863.60;;;1.98
69590;BMP180;56792;50.644;17.984;2023-02-01T23:47:35;98868.20;;;2.00
69590;BMP180;56792;50.644;17.984;2023-02-01T23:50:09;98866.60;;;2.00
69590;BMP180;56792;50.644;17.984;2023-02-01T23:52:41;98859.80;;;2.10
69590;BMP180;56792;50.644;17.984;2023-02-01T23:55:14;98865.20;;;2.10
69590;BMP180;56792;50.644;17.984;2023-02-01T23:57:47;98863.60;;;2.20
